Kendall, MI (49062)

12:46 PM EST on December 22, 2014 (GMT -0500)
Gobles | Change Station
CLOSE
Current Station
Personal Weather Station
Location: Gobles, MI
Elevation: 860 ft
Nearby Weather Stations

Elev 860 ft 42.40 °N, 85.82 °W | Updated 48 seconds ago

Overcast
Overcast
34.2 °F
Feels Like 29 °F
N
5.3
Wind Variable Wind from SE

Today
High -- | Low -- °F
--% Chance of Precip.
Yesterday
High -- | Low -- °F
Precip. -- in
8:09 AM 5:14 PM
New Moon, 1% visible
Pressure 29.98 in
Visibility 6.0 miles
Clouds Overcast 10000 ft
Windchill 29 °F
Dew Point 30 °F
Humidity 83%
Rainfall 0.00 in
Snow Depth Not available.
UV 1 out of 12
Pollen .10 out of 12
Air Quality Not available.
Flu Activity Not available.
METAR KAZO 221653Z 12007KT 6SM HZ OVC100 02/M03 A2995 RMK AO2 SLP151 T00171028 $

More Conditions Fewer Conditions

Pressure 29.98 in
Visibility 6.0 miles
Clouds Overcast 10000 ft
Windchill 29 °F
Dew Point 30 °F
Humidity 83%
Rainfall 0.00 in
Snow Depth Not available.
UV 1 out of 12
Pollen .10 out of 12
Air Quality Not available.
Flu Activity Not available.
METAR KAZO 221653Z 12007KT 6SM HZ OVC100 02/M03 A2995 RMK AO2 SLP151 T00171028 $

More Conditions Fewer Conditions

10-Day Weather Forecast

Almanac

Astronomy

Dec. 22, 2014 Rise Set
Actual Time
Civil Twilight
Nautical Twilight
Astronomical Twilight
Moon
Length of Visible Light
Length of Day
Tomorrow will be .
, % of the Moon is Illuminated

Today's Extremes

State Highs State Lows

Community

WunderPhotos

Upload Photos

1,779,655 photos uploaded!

WunderBlogs® & News

Nearby

Air Quality

  Air Quality AQ Index Pollutant
Not available.

Snow Depth

Station Depth Elevation

Earthquake Activity

City Distance Mag. Time & Date
Minimum magnitude displayed is 2.5.

Coastal Water Temperatures

Place Temperature

Nearby Weather Stations